Time;durP1;ratioP1;P1;durP2;ratioP2;P2;SDS_P1;SDS_P2;PMS_P1;PMS_P2;Temp;Humidity;BMP_temperature;BMP_pressure;BME280_temperature;BME280_humidity;BME280_pressure;Samples;Min_cycle;Max_cycle;Signal;HPM_P1;HPM_P2
2022/11/20 00:04:32;;;;;;;18.13;13.57;;;;;;;-3.96;58.77;100220.16;10146807;29;20268;-89
2022/11/20 00:09:56;;;;;;;20.67;15.07;;;;;;;-3.78;58.59;100211.75;10150950;29;20205;-85
2022/11/20 00:15:18;;;;;;;22.07;16.80;;;;;;;-3.45;57.77;100210.19;10137900;29;20201;-87
2022/11/20 00:20:41;;;;;;;21.97;16.60;;;;;;;-3.84;58.79;100212.72;10125532;29;20226;-84
2022/11/20 00:26:06;;;;;;;20.27;15.10;;;;;;;-3.56;58.76;100211.06;10142781;29;20205;-91
2022/11/20 00:31:28;;;;;;;23.23;16.30;;;;;;;-3.58;58.25;100210.47;10150823;29;20272;-88
2022/11/20 00:36:50;;;;;;;19.47;14.43;;;;;;;-3.40;57.59;100204.78;10146673;29;20193;-88
2022/11/20 00:42:12;;;;;;;17.87;13.80;;;;;;;-3.48;58.80;100207.94;10143683;29;20217;-85
2022/11/20 00:47:35;;;;;;;19.03;15.10;;;;;;;-3.10;57.46;100210.88;10141378;29;20236;-89
2022/11/20 00:52:57;;;;;;;16.83;13.37;;;;;;;-3.27;58.08;100201.72;10142517;29;20225;-90
2022/11/20 00:58:19;;;;;;;18.00;13.57;;;;;;;-3.23;58.90;100197.41;10129957;29;20249;-88
2022/11/20 01:03:43;;;;;;;18.30;13.97;;;;;;;-3.10;58.82;100202.59;10112185;29;20205;-87
2022/11/20 01:09:15;;;;;;;21.73;14.80;;;;;;;-3.33;59.70;100202.72;10138777;29;20614;-89
2022/11/20 01:14:37;;;;;;;17.30;13.47;;;;;;;-2.97;59.05;100202.28;10143566;29;20209;-86
2022/11/20 01:19:59;;;;;;;18.50;14.20;;;;;;;-2.78;58.58;100193.75;10147038;29;20211;-90
2022/11/20 01:25:24;;;;;;;17.20;13.33;;;;;;;-2.72;58.46;100199.13;10108909;29;20221;-89
2022/11/20 01:30:46;;;;;;;18.23;13.53;;;;;;;-2.77;58.99;100196.25;10108146;29;20210;-88
2022/11/20 01:36:10;;;;;;;17.13;12.63;;;;;;;-2.59;57.88;100199.88;10116104;29;20312;-83
2022/11/20 01:47:37;;;;;;;17.73;13.87;;;;;;;-2.91;59.95;100183.88;10133698;29;20224;-87
2022/11/20 01:53:04;;;;;;;17.47;13.50;;;;;;;-3.04;60.38;100165.75;10145077;29;20197;-86
2022/11/20 01:58:31;;;;;;;18.60;14.53;;;;;;;-3.63;62.03;100163.56;10144971;29;20198;-88
2022/11/20 02:03:54;;;;;;;15.33;12.27;;;;;;;-2.42;58.44;100140.00;10126774;29;20245;-86
2022/11/20 02:09:16;;;;;;;16.57;12.90;;;;;;;-3.00;60.43;100139.38;10142136;29;20261;-87
2022/11/20 02:14:39;;;;;;;17.20;13.37;;;;;;;-2.79;59.84;100148.78;10143640;29;20209;-85
2022/11/20 02:20:02;;;;;;;16.00;12.60;;;;;;;-2.55;59.85;100154.97;10117236;29;20261;-87
2022/11/20 02:25:24;;;;;;;19.50;12.57;;;;;;;-2.16;59.97;100153.06;10116458;29;20642;-90
2022/11/20 02:30:58;;;;;;;17.90;12.80;;;;;;;-2.09;59.45;100144.59;10150545;29;20591;-87
2022/11/20 02:36:20;;;;;;;15.17;12.00;;;;;;;-2.28;60.26;100139.34;10141083;29;20197;-88
2022/11/20 02:41:42;;;;;;;17.97;12.90;;;;;;;-1.85;58.89;100126.66;10114436;29;20209;-88
2022/11/20 02:47:05;;;;;;;15.83;12.33;;;;;;;-1.88;60.24;100127.19;10137425;29;20268;-90
2022/11/20 02:52:27;;;;;;;14.07;11.77;;;;;;;-1.91;60.14;100130.47;10137516;29;20261;-89
2022/11/20 02:57:49;;;;;;;15.77;11.93;;;;;;;-1.87;59.87;100116.97;10125197;29;20189;-89
2022/11/20 03:03:12;;;;;;;14.73;11.87;;;;;;;-2.09;61.37;100116.97;10145395;29;20241;-89
2022/11/20 03:08:42;;;;;;;16.07;12.43;;;;;;;-1.47;59.47;100116.56;10153894;29;20265;-89
2022/11/20 03:14:05;;;;;;;15.47;12.20;;;;;;;-1.70;60.18;100113.03;10156430;29;20225;-91
2022/11/20 03:19:27;;;;;;;15.33;12.03;;;;;;;-1.70;61.03;100123.25;10149765;29;20261;-85
2022/11/20 03:24:51;;;;;;;15.43;11.57;;;;;;;-1.51;59.57;100115.44;10150366;29;20663;-86
2022/11/20 03:30:15;;;;;;;16.00;11.93;;;;;;;-1.26;59.76;100107.41;10147696;29;20193;-89
2022/11/20 03:35:37;;;;;;;14.40;12.20;;;;;;;-1.75;61.16;100107.44;10147685;29;20190;-91
2022/11/20 03:41:10;;;;;;;14.67;12.40;;;;;;;-1.13;59.47;100090.38;10148075;29;20185;-83
2022/11/20 03:46:32;;;;;;;14.80;12.27;;;;;;;-1.64;60.74;100078.81;10133972;29;20233;-89
2022/11/20 03:51:55;;;;;;;14.77;11.87;;;;;;;-1.41;60.75;100090.66;10148646;29;20193;-91
2022/11/20 03:57:22;;;;;;;15.13;11.63;;;;;;;-0.97;59.75;100092.13;10147639;29;20252;-89
2022/11/20 04:02:44;;;;;;;15.20;12.27;;;;;;;-1.07;59.45;100088.47;10131418;29;20197;-85
2022/11/20 04:08:06;;;;;;;17.57;12.93;;;;;;;-0.98;58.66;100087.69;10164615;29;20241;-87
2022/11/20 04:13:28;;;;;;;16.10;12.53;;;;;;;-0.96;59.08;100077.22;10178984;29;20283;-88
2022/11/20 04:18:58;;;;;;;15.37;12.10;;;;;;;-1.07;60.27;100077.41;10147216;29;20193;-88
2022/11/20 04:24:21;;;;;;;18.13;13.13;;;;;;;-1.48;61.56;100074.28;10140694;29;20217;-89
2022/11/20 04:29:43;;;;;;;14.63;11.33;;;;;;;-1.01;61.01;100074.44;10126661;29;20776;-83
2022/11/20 04:35:05;;;;;;;14.40;11.63;;;;;;;-1.46;61.59;100079.56;10128225;29;20503;-87
2022/11/20 04:40:28;;;;;;;14.27;12.30;;;;;;;-1.50;62.47;100081.16;10124764;29;20201;-87
2022/11/20 04:45:54;;;;;;;14.57;11.63;;;;;;;-0.89;61.20;100075.06;10128351;29;20248;-86
2022/11/20 04:51:16;;;;;;;13.77;10.93;;;;;;;-0.83;60.45;100074.00;10121610;29;20268;-90
2022/11/20 04:56:49;;;;;;;12.90;10.73;;;;;;;-0.70;59.78;100074.63;10150172;29;20536;-89
2022/11/20 05:02:12;;;;;;;17.10;13.47;;;;;;;-1.14;60.31;100088.69;10134895;29;20306;-83
2022/11/20 05:07:35;;;;;;;17.30;13.53;;;;;;;-0.83;58.64;100095.28;10128836;29;20216;-91
2022/11/20 05:12:59;;;;;;;17.53;13.70;;;;;;;-0.73;58.61;100086.25;10131453;29;20547;-89
2022/11/20 05:18:22;;;;;;;16.33;13.60;;;;;;;-0.86;59.11;100076.47;10139041;29;20194;-90
2022/11/20 05:23:45;;;;;;;16.47;13.17;;;;;;;-1.15;61.35;100091.72;10137305;29;20272;-86
2022/11/20 05:29:12;;;;;;;16.53;13.93;;;;;;;-0.88;60.04;100084.19;10140643;29;20224;-89
2022/11/20 05:34:34;;;;;;;15.77;12.87;;;;;;;-1.07;60.70;100077.41;10136757;29;20225;-90
2022/11/20 05:39:56;;;;;;;16.63;12.80;;;;;;;-1.16;61.18;100079.84;10124755;29;20245;-87
2022/11/20 05:45:18;;;;;;;16.40;13.07;;;;;;;-1.07;60.62;100075.47;10125198;29;20217;-89
2022/11/20 05:50:40;;;;;;;16.10;12.90;;;;;;;-1.36;61.77;100074.94;10141053;29;20229;-87
2022/11/20 05:56:12;;;;;;;16.23;12.60;;;;;;;-1.15;61.00;100077.91;10138006;29;20193;-87
2022/11/20 06:01:35;;;;;;;15.17;12.87;;;;;;;-1.31;62.43;100076.94;10143954;29;20194;-88
2022/11/20 06:06:57;;;;;;;15.50;12.30;;;;;;;-1.11;61.60;100074.31;10148270;29;20201;-88
2022/11/20 06:12:22;;;;;;;14.50;11.97;;;;;;;-1.39;63.24;100063.59;10107977;29;20198;-88
2022/11/20 06:17:45;;;;;;;13.90;11.67;;;;;;;-1.52;62.67;100075.09;10107731;29;20246;-87
2022/11/20 06:23:07;;;;;;;17.13;12.03;;;;;;;-1.74;63.38;100075.97;10120356;29;20205;-88
2022/11/20 06:28:30;;;;;;;16.33;13.27;;;;;;;-1.60;63.43;100071.69;10159082;29;20228;-80
2022/11/20 06:33:52;;;;;;;15.27;12.30;;;;;;;-1.71;63.41;100072.69;10143077;29;20209;-90
2022/11/20 06:39:14;;;;;;;13.80;10.87;;;;;;;-1.90;63.55;100079.66;10131764;29;20961;-87
2022/11/20 06:44:36;;;;;;;15.10;11.33;;;;;;;-1.90;63.26;100087.97;10172092;29;20225;-91
2022/11/20 06:49:58;;;;;;;14.57;11.47;;;;;;;-1.93;63.60;100085.72;10152925;29;20241;-88
2022/11/20 06:55:21;;;;;;;15.07;12.33;;;;;;;-2.07;64.10;100084.44;10150698;29;20196;-80
2022/11/20 07:00:43;;;;;;;14.23;10.90;;;;;;;-2.19;63.81;100089.22;10126039;29;20457;-85
2022/11/20 07:06:05;;;;;;;12.97;11.07;;;;;;;-2.22;63.54;100086.97;10117205;29;20260;-80
2022/11/20 07:11:27;;;;;;;17.43;12.40;;;;;;;-2.25;64.39;100083.63;10138189;29;20201;-89
2022/11/20 07:16:51;;;;;;;39.50;29.37;;;;;;;-1.85;63.98;100099.03;10148905;29;20193;-81
2022/11/20 07:22:13;;;;;;;15.30;11.37;;;;;;;-2.10;63.54;100095.97;10140551;29;20209;-76
2022/11/20 07:27:35;;;;;;;13.57;11.17;;;;;;;-2.19;62.92;100109.38;10123351;29;20228;-83
2022/11/20 07:32:58;;;;;;;15.90;11.80;;;;;;;-2.31;62.99;100123.31;10141857;29;20355;-85
2022/11/20 07:38:22;;;;;;;15.67;11.63;;;;;;;-2.08;63.18;100113.13;10141656;29;20572;-91
2022/11/20 07:43:44;;;;;;;17.17;12.13;;;;;;;-2.37;64.06;100113.28;10131720;29;20201;-92
2022/11/20 07:49:06;;;;;;;15.83;11.23;;;;;;;-1.86;62.83;100110.34;10160007;29;20312;-89
2022/11/20 07:54:29;;;;;;;14.60;11.97;;;;;;;-1.97;63.43;100113.00;10120043;29;20257;-93
2022/11/20 07:59:52;;;;;;;14.90;11.03;;;;;;;-1.97;63.37;100106.63;10121811;29;20197;-82
2022/11/20 08:05:14;;;;;;;13.83;11.47;;;;;;;-1.65;62.20;100104.81;10124044;29;20232;-80
2022/11/20 08:10:36;;;;;;;14.77;11.93;;;;;;;-1.62;62.40;100104.25;10130829;29;20283;-80
2022/11/20 08:15:58;;;;;;;15.77;11.40;;;;;;;-1.49;62.64;100096.66;10111574;29;20245;-79
2022/11/20 08:21:20;;;;;;;14.87;11.10;;;;;;;-1.59;62.90;100101.00;10141743;29;20294;-83
2022/11/20 08:26:42;;;;;;;17.13;12.17;;;;;;;-1.02;62.08;100096.81;10126899;29;20248;-81
2022/11/20 08:32:05;;;;;;;15.27;12.00;;;;;;;-1.43;63.54;100106.69;10136217;29;20240;-86
2022/11/20 08:37:27;;;;;;;16.23;12.30;;;;;;;-0.99;62.60;100104.59;10109149;29;20280;-88
2022/11/20 08:42:52;;;;;;;17.60;12.17;;;;;;;-0.63;62.03;100106.50;10090209;29;20272;-88
2022/11/20 08:48:15;;;;;;;16.07;11.73;;;;;;;-0.25;60.93;100080.41;10111324;29;20241;-85
2022/11/20 08:53:39;;;;;;;22.57;12.13;;;;;;;0.09;60.38;100074.44;10100251;29;20193;-88
2022/11/20 08:59:04;;;;;;;15.37;11.70;;;;;;;0.02;60.45;100079.44;10104232;29;20266;-87
2022/11/20 09:04:28;;;;;;;15.40;12.40;;;;;;;-0.03;60.19;100082.16;10128428;29;20201;-88
2022/11/20 09:09:50;;;;;;;16.93;12.97;;;;;;;-0.23;61.35;100086.53;10126729;29;20205;-88
2022/11/20 09:15:13;;;;;;;15.23;11.70;;;;;;;0.05;59.77;100084.44;10147847;29;20202;-89
2022/11/20 09:20:35;;;;;;;15.17;12.63;;;;;;;0.65;57.11;100088.47;10131508;29;20257;-82
2022/11/20 09:25:59;;;;;;;15.33;12.20;;;;;;;0.54;57.72;100090.41;10118496;29;20285;-92
2022/11/20 09:31:23;;;;;;;19.67;13.53;;;;;;;0.40;58.37;100084.56;10131973;29;20216;-81
2022/11/20 09:36:46;;;;;;;15.93;13.37;;;;;;;0.76;55.44;100065.19;10123310;29;20288;-84
2022/11/20 09:42:41;;;;;;;16.13;13.53;;;;;;;0.88;54.63;100057.41;10107518;29;20615;-85
2022/11/20 09:48:27;;;;;;;18.03;12.70;;;;;;;0.69;53.78;100056.31;10102037;29;20260;-85
2022/11/20 09:54:20;;;;;;;16.83;12.40;;;;;;;0.81;51.13;100051.31;10128715;29;20292;-83
2022/11/20 09:59:44;;;;;;;16.50;10.67;;;;;;;1.30;52.20;100049.59;10112931;29;20233;-79
2022/11/20 10:05:23;;;;;;;15.50;10.37;;;;;;;0.71;52.70;100043.81;10120052;29;20241;-78
2022/11/20 10:10:49;;;;;;;14.83;10.50;;;;;;;0.53;53.24;100038.81;10112515;29;20277;-78
2022/11/20 10:16:29;;;;;;;14.00;10.70;;;;;;;0.64;53.06;100026.63;10097713;29;20543;-79
2022/11/20 10:22:09;;;;;;;12.27;9.53;;;;;;;0.53;53.48;100036.88;10127233;29;20237;-78
2022/11/20 10:27:50;;;;;;;12.97;9.53;;;;;;;0.87;52.48;100028.00;10132240;29;20265;-78
2022/11/20 10:33:17;;;;;;;13.87;10.20;;;;;;;1.30;52.60;100024.59;10107073;29;20241;-78
2022/11/20 10:38:45;;;;;;;8.93;7.03;;;;;;;0.99;53.82;100017.44;10126293;29;20325;-78
2022/11/20 10:45:00;;;;;;;10.87;7.33;;;;;;;1.15;53.42;100016.31;10089146;29;20497;-79
2022/11/20 10:50:09;;;;;;;9.93;7.30;;;;;;;1.03;53.28;100015.78;10098803;29;20303;-87
2022/11/20 10:55:45;;;;;;;8.50;6.90;;;;;;;0.45;54.99;100017.16;10139679;29;20213;-84
2022/11/20 11:01:18;;;;;;;7.70;6.30;;;;;;;0.95;52.84;100013.59;10136372;29;20242;-85
2022/11/20 11:06:46;;;;;;;8.70;6.13;;;;;;;1.40;52.38;100001.53;10128349;29;20240;-87
2022/11/20 11:12:10;;;;;;;9.90;8.20;;;;;;;1.31;53.43;100004.06;10118835;29;20282;-79
2022/11/20 11:17:36;;;;;;;8.23;6.47;;;;;;;1.20;51.72;99991.31;10080655;29;20760;-84
2022/11/20 11:22:59;;;;;;;7.23;5.93;;;;;;;1.20;52.85;99980.22;10129756;29;20624;-84
2022/11/20 11:28:25;;;;;;;9.23;6.97;;;;;;;1.67;52.57;99978.91;10124479;29;20255;-80
2022/11/20 11:33:47;;;;;;;10.07;7.70;;;;;;;1.01;54.12;99965.28;10108333;29;20230;-90
2022/11/20 11:39:25;;;;;;;17.13;15.07;;;;;;;1.05;53.57;99955.28;10136783;29;20257;-91
2022/11/20 11:45:05;;;;;;;11.33;8.90;;;;;;;1.57;52.63;99956.75;10121413;29;20212;-80
2022/11/20 11:50:28;;;;;;;10.90;7.17;;;;;;;2.10;51.80;99940.34;10111103;29;20269;-80
2022/11/20 11:56:08;;;;;;;10.57;9.03;;;;;;;1.38;53.56;99933.50;10084717;29;20209;-79
2022/11/20 12:01:34;;;;;;;10.03;7.53;;;;;;;0.83;54.63;99924.22;10117629;29;20224;-79
2022/11/20 12:07:01;;;;;;;9.93;8.13;;;;;;;1.05;54.02;99916.44;10122159;29;20257;-87
2022/11/20 12:12:28;;;;;;;12.90;11.33;;;;;;;1.59;53.00;99910.91;10115280;29;20240;-80
2022/11/20 12:17:50;;;;;;;9.37;7.37;;;;;;;2.13;50.78;99898.03;10110756;29;20617;-78
2022/11/20 12:23:27;;;;;;;10.10;7.57;;;;;;;0.87;53.61;99890.09;10128167;29;20588;-78
2022/11/20 12:28:55;;;;;;;8.30;6.20;;;;;;;0.87;53.92;99886.50;10120967;29;20304;-84
2022/11/20 12:34:27;;;;;;;8.23;6.10;;;;;;;1.74;51.76;99884.16;10097448;29;20603;-88
2022/11/20 12:39:50;;;;;;;8.53;6.10;;;;;;;1.49;52.73;99871.25;10107473;29;20249;-85
2022/11/20 12:45:24;;;;;;;8.63;6.97;;;;;;;1.82;51.30;99864.94;10124284;29;20269;-79
2022/11/20 12:50:58;;;;;;;7.37;6.33;;;;;;;2.09;50.80;99858.06;10140750;29;20272;-80
2022/11/20 12:56:20;;;;;;;8.40;6.67;;;;;;;1.60;51.79;99862.59;10102724;29;20296;-79
2022/11/20 13:01:51;;;;;;;8.97;7.63;;;;;;;1.74;51.43;99850.84;10125049;29;20232;-78
2022/11/20 13:07:14;;;;;;;9.33;7.70;;;;;;;1.90;51.78;99839.28;10112895;29;20236;-80
2022/11/20 13:12:44;;;;;;;10.10;7.20;;;;;;;1.58;52.85;99841.75;10106602;29;20229;-80
2022/11/20 13:18:16;;;;;;;9.40;7.53;;;;;;;1.93;53.10;99824.00;10113504;29;20291;-84
2022/11/20 13:23:38;;;;;;;10.53;8.13;;;;;;;1.60;52.83;99812.59;10127423;29;20549;-80
2022/11/20 13:29:11;;;;;;;10.13;8.30;;;;;;;1.86;52.35;99792.94;10085492;29;20253;-80
2022/11/20 13:34:34;;;;;;;9.93;7.67;;;;;;;2.18;51.05;99778.47;9799803;29;20226;-85
2022/11/20 13:40:12;;;;;;;11.70;8.27;;;;;;;2.33;50.80;99767.22;9953166;29;20930;-81
2022/11/20 13:45:36;;;;;;;11.90;8.27;;;;;;;2.08;51.18;99761.88;10110721;29;20308;-88
2022/11/20 13:51:05;;;;;;;10.30;8.10;;;;;;;1.91;51.87;99760.38;10143755;29;20311;-86
2022/11/20 13:56:37;;;;;;;9.97;8.03;;;;;;;1.88;51.81;99752.59;10143078;29;20334;-84
2022/11/20 14:02:00;;;;;;;11.27;8.40;;;;;;;2.02;51.75;99753.59;10130794;29;20213;-87
2022/11/20 14:07:27;;;;;;;9.73;7.63;;;;;;;2.24;51.93;99757.88;10134688;29;20328;-89
2022/11/20 14:12:50;;;;;;;11.67;7.63;;;;;;;1.81;52.62;99735.47;10097745;29;20556;-84
2022/11/20 14:18:21;;;;;;;12.53;8.23;;;;;;;1.99;52.24;99720.00;10121645;29;20334;-81
2022/11/20 14:23:43;;;;;;;9.83;8.17;;;;;;;1.92;53.54;99706.44;10104489;29;20273;-80
2022/11/20 14:29:05;;;;;;;9.77;7.83;;;;;;;2.46;51.40;99702.53;10116317;29;20497;-79
2022/11/20 14:34:29;;;;;;;10.70;7.93;;;;;;;1.96;53.64;99693.63;10102734;29;20288;-80
2022/11/20 14:39:55;;;;;;;10.27;8.07;;;;;;;1.49;54.07;99693.50;10116049;29;20634;-81
2022/11/20 14:45:19;;;;;;;11.47;8.60;;;;;;;1.82;54.46;99670.44;10112514;29;20328;-89
2022/11/20 14:50:43;;;;;;;12.83;10.13;;;;;;;1.76;55.06;99660.47;10095059;29;20260;-81
2022/11/20 14:56:05;;;;;;;12.33;9.70;;;;;;;2.00;54.03;99650.22;10142213;29;20669;-80
2022/11/20 15:01:29;;;;;;;11.50;8.93;;;;;;;1.86;54.00;99654.84;10115222;29;20224;-80
2022/11/20 15:06:55;;;;;;;14.07;8.77;;;;;;;1.51;55.03;99652.41;10119123;29;20233;-81
2022/11/20 15:12:17;;;;;;;11.17;9.20;;;;;;;1.93;54.69;99632.25;10104746;29;20260;-80
2022/11/20 15:17:40;;;;;;;12.23;9.17;;;;;;;1.51;58.37;99631.00;10141089;29;20233;-80
2022/11/20 15:23:09;;;;;;;13.67;9.97;;;;;;;1.60;59.87;99625.66;10106808;29;20656;-81
2022/11/20 15:28:38;;;;;;;13.97;10.43;;;;;;;1.62;60.98;99615.06;10116007;29;20256;-80
2022/11/20 15:34:01;;;;;;;15.27;10.53;;;;;;;1.40;60.68;99604.47;10111598;29;20276;-80
2022/11/20 15:39:23;;;;;;;14.47;10.57;;;;;;;1.30;61.88;99594.28;10120572;29;20240;-80
2022/11/20 15:44:45;;;;;;;15.00;10.67;;;;;;;1.20;62.52;99577.75;10123962;29;20250;-81
2022/11/20 15:50:13;;;;;;;15.13;11.70;;;;;;;1.73;61.11;99569.41;10122006;29;20237;-81
2022/11/20 15:55:35;;;;;;;13.70;10.17;;;;;;;1.78;61.44;99568.50;10112683;29;20244;-81
2022/11/20 16:00:57;;;;;;;15.63;11.13;;;;;;;1.61;61.03;99558.69;10090456;29;20266;-82
2022/11/20 16:06:19;;;;;;;14.83;11.50;;;;;;;1.40;63.62;99543.38;10092243;29;20300;-81
2022/11/20 16:11:42;;;;;;;17.53;11.90;;;;;;;1.72;63.46;99528.88;10086804;29;20248;-81
2022/11/20 16:17:04;;;;;;;14.90;12.13;;;;;;;1.66;63.60;99524.47;10119324;29;20236;-81
2022/11/20 16:22:26;;;;;;;16.83;12.13;;;;;;;1.61;65.15;99513.41;10103363;29;20299;-86
2022/11/20 16:27:49;;;;;;;17.33;12.70;;;;;;;1.66;65.77;99510.59;10116625;29;20237;-85
2022/11/20 16:33:13;;;;;;;17.47;13.17;;;;;;;1.41;66.81;99510.91;10111807;29;20245;-83
2022/11/20 16:38:36;;;;;;;16.73;13.00;;;;;;;1.58;67.13;99505.72;10090269;29;20274;-81
2022/11/20 16:44:00;;;;;;;19.37;12.77;;;;;;;1.21;68.66;99510.00;10106503;29;20232;-85
2022/11/20 16:49:22;;;;;;;19.20;13.73;;;;;;;1.23;68.87;99507.75;10099554;29;20696;-82
2022/11/20 16:54:44;;;;;;;18.00;13.07;;;;;;;1.53;68.58;99492.69;10102910;29;20232;-83
2022/11/20 17:00:07;;;;;;;18.77;13.43;;;;;;;1.39;69.56;99500.06;10114677;29;20228;-81
2022/11/20 17:05:30;;;;;;;20.27;14.60;;;;;;;1.41;69.87;99483.13;10115064;29;20717;-87
2022/11/20 17:10:52;;;;;;;17.03;12.37;;;;;;;1.81;66.74;99490.13;10108646;29;20316;-83
2022/11/20 17:16:16;;;;;;;23.30;15.47;;;;;;;1.37;70.58;99473.72;10092585;29;20876;-82
2022/11/20 17:21:39;;;;;;;22.37;15.57;;;;;;;1.55;70.01;99471.00;10107433;29;20228;-82
2022/11/20 17:27:01;;;;;;;24.70;16.20;;;;;;;1.40;71.87;99456.47;10109575;29;20673;-82
2022/11/20 17:32:24;;;;;;;24.83;16.13;;;;;;;1.60;71.58;99445.13;10123533;29;20573;-84
2022/11/20 17:37:46;;;;;;;27.50;16.73;;;;;;;1.59;70.10;99429.59;10112476;29;20726;-82
2022/11/20 17:43:08;;;;;;;24.63;15.90;;;;;;;1.80;70.22;99416.25;10110357;29;20548;-85
2022/11/20 17:48:30;;;;;;;22.93;16.70;;;;;;;1.82;70.65;99403.72;10114815;29;20265;-82
2022/11/20 17:53:56;;;;;;;27.30;17.87;;;;;;;1.32;73.62;99394.94;10120243;29;20229;-83
2022/11/20 17:59:18;;;;;;;27.47;17.87;;;;;;;1.77;71.88;99387.09;10100103;29;20210;-82
2022/11/20 18:04:41;;;;;;;27.80;19.00;;;;;;;1.85;71.78;99364.22;10119290;29;20298;-88
2022/11/20 18:10:05;;;;;;;25.37;16.87;;;;;;;1.74;72.96;99356.34;10128812;29;20256;-85
2022/11/20 18:15:28;;;;;;;27.40;17.43;;;;;;;2.24;71.07;99340.84;10103739;29;20268;-85
2022/11/20 18:20:52;;;;;;;27.80;17.70;;;;;;;2.30;71.66;99331.25;10108499;29;20233;-86
2022/11/20 18:26:14;;;;;;;28.93;17.60;;;;;;;2.28;71.09;99323.22;10093280;29;20678;-88
2022/11/20 18:31:36;;;;;;;27.40;17.60;;;;;;;2.17;72.86;99309.78;10114647;29;20255;-86
2022/11/20 18:36:59;;;;;;;28.33;17.40;;;;;;;2.22;71.60;99295.81;10115875;29;20363;-84
2022/11/20 18:48:02;;;;;;;23.73;14.93;;;;;;;2.10;73.87;99264.88;10130345;29;20273;-84
2022/11/20 18:53:24;;;;;;;24.63;14.30;;;;;;;2.45;71.88;99252.28;10114045;29;20248;-87
2022/11/20 18:58:46;;;;;;;19.20;12.50;;;;;;;2.13;73.54;99233.66;10105665;29;20233;-85
2022/11/20 19:04:10;;;;;;;17.13;11.47;;;;;;;2.22;73.79;99223.53;10119187;29;20265;-84
2022/11/20 19:09:33;;;;;;;20.60;12.07;;;;;;;2.57;72.25;99210.88;10103765;29;20251;-88
2022/11/20 19:14:58;;;;;;;17.40;11.57;;;;;;;2.46;71.51;99213.06;10105001;29;20284;-90
2022/11/20 19:20:21;;;;;;;11.27;8.20;;;;;;;2.20;72.31;99207.16;10118839;29;20681;-89
2022/11/20 19:25:43;;;;;;;13.13;9.50;;;;;;;2.42;72.61;99189.78;10110707;29;20228;-86
2022/11/20 19:31:09;;;;;;;11.70;7.80;;;;;;;2.39;72.59;99174.53;10109534;29;20285;-88
2022/11/20 19:36:36;;;;;;;11.07;8.10;;;;;;;2.22;74.12;99159.59;10106973;29;20296;-86
2022/11/20 19:41:58;;;;;;;18.03;12.33;;;;;;;2.54;72.35;99147.53;10113829;29;20201;-87
2022/11/20 19:47:20;;;;;;;14.43;10.53;;;;;;;2.31;73.35;99141.06;10115375;29;20335;-85
2022/11/20 19:52:42;;;;;;;14.87;8.90;;;;;;;2.76;72.50;99122.56;10097158;29;20265;-83
2022/11/20 19:58:05;;;;;;;22.37;14.43;;;;;;;2.73;71.94;99118.44;10092985;29;20289;-85
2022/11/20 20:03:27;;;;;;;18.83;11.77;;;;;;;2.92;71.26;99109.09;10109019;29;20567;-85
2022/11/20 20:09:01;;;;;;;13.73;8.77;;;;;;;3.20;69.35;99095.91;10132031;29;20283;-87
2022/11/20 20:14:25;;;;;;;10.27;7.37;;;;;;;3.24;70.16;99089.38;10114988;29;20197;-90
2022/11/20 20:19:47;;;;;;;10.90;7.10;;;;;;;2.99;71.56;99085.28;10113822;29;20670;-85
2022/11/20 20:25:10;;;;;;;17.87;10.73;;;;;;;2.86;72.46;99083.38;10081046;29;20244;-86
2022/11/20 20:30:34;;;;;;;24.17;16.30;;;;;;;2.69;71.40;99072.91;10115608;29;20329;-86
2022/11/20 20:35:57;;;;;;;28.87;17.77;;;;;;;1.76;76.40;99095.72;10116386;29;20244;-86
2022/11/20 20:41:21;;;;;;;27.70;17.40;;;;;;;2.29;72.65;99090.50;10099351;29;20234;-88
2022/11/20 20:46:43;;;;;;;25.77;15.43;;;;;;;1.79;73.51;99093.16;10119575;29;20551;-88
2022/11/20 20:52:07;;;;;;;25.37;17.57;;;;;;;2.12;74.46;99081.97;10116800;29;20673;-90
2022/11/20 20:57:29;;;;;;;26.60;17.53;;;;;;;2.57;72.03;99080.97;10131516;29;20233;-91
2022/11/20 21:02:51;;;;;;;23.70;16.67;;;;;;;2.58;70.75;99084.59;10103696;29;20506;-87
2022/11/20 21:08:23;;;;;;;30.17;18.40;;;;;;;2.19;73.75;99097.09;10118506;29;20599;-90
2022/11/20 21:13:46;;;;;;;29.03;17.97;;;;;;;2.47;73.00;99103.47;10118393;29;20222;-85
2022/11/20 21:19:09;;;;;;;29.27;18.67;;;;;;;2.26;73.82;99105.84;10102605;29;20209;-87
2022/11/20 21:24:33;;;;;;;21.73;14.63;;;;;;;1.94;72.22;99134.53;10104372;29;20863;-86
2022/11/20 21:29:55;;;;;;;24.40;16.93;;;;;;;2.09;72.89;99135.38;10099757;29;20261;-81
2022/11/20 21:35:17;;;;;;;20.20;15.10;;;;;;;1.46;75.68;99153.50;10131147;29;20237;-84
2022/11/20 21:40:39;;;;;;;21.77;15.63;;;;;;;1.53;74.94;99155.88;10108024;29;20667;-82
2022/11/20 21:46:04;;;;;;;24.60;16.37;;;;;;;1.67;74.33;99163.09;10136480;29;20256;-81
2022/11/20 21:51:28;;;;;;;19.40;13.93;;;;;;;1.53;71.79;99172.53;10113182;29;20261;-81
2022/11/20 21:56:50;;;;;;;15.87;12.20;;;;;;;1.18;74.20;99187.81;10112272;29;20245;-79
2022/11/20 22:02:12;;;;;;;20.07;14.37;;;;;;;1.95;72.94;99185.38;10107902;29;20289;-80
2022/11/20 22:07:34;;;;;;;20.53;14.53;;;;;;;1.51;73.79;99195.03;10115193;29;20288;-84
2022/11/20 22:18:49;;;;;;;33.13;20.60;;;;;;;1.40;73.41;99214.94;10131715;29;20253;-83
2022/11/20 22:24:12;;;;;;;26.53;17.53;;;;;;;1.61;72.46;99224.59;10117039;29;20205;-84
2022/11/20 22:29:35;;;;;;;26.43;17.53;;;;;;;1.01;75.59;99238.28;10132151;29;20209;-82
2022/11/20 22:34:57;;;;;;;21.90;16.00;;;;;;;0.68;76.53;99250.38;10133593;29;20256;-83
2022/11/20 22:40:19;;;;;;;21.93;15.50;;;;;;;1.12;73.27;99253.66;10103969;29;20262;-83
2022/11/20 22:45:41;;;;;;;19.63;13.27;;;;;;;1.15;73.55;99260.56;10113287;29;20701;-82
2022/11/20 22:51:06;;;;;;;18.77;13.93;;;;;;;0.96;73.94;99274.41;10115605;29;20264;-84
2022/11/20 22:56:29;;;;;;;16.73;12.87;;;;;;;1.18;71.28;99288.56;10115436;29;20261;-84
2022/11/20 23:01:51;;;;;;;18.00;12.77;;;;;;;1.07;71.68;99300.91;10129430;29;20228;-84
2022/11/20 23:07:13;;;;;;;16.93;12.90;;;;;;;0.87;72.01;99303.94;10106744;29;20879;-84
2022/11/20 23:12:36;;;;;;;15.27;12.20;;;;;;;0.87;71.86;99315.03;10099397;29;20229;-85
2022/11/20 23:17:58;;;;;;;13.87;10.87;;;;;;;0.65;72.97;99328.63;10095691;29;20248;-86
2022/11/20 23:23:20;;;;;;;16.23;11.83;;;;;;;-0.14;75.30;99342.63;10098728;29;20233;-85
2022/11/20 23:28:43;;;;;;;12.87;11.30;;;;;;;1.16;70.17;99340.75;10113600;29;20487;-85
2022/11/20 23:34:06;;;;;;;15.57;12.53;;;;;;;0.10;72.43;99347.41;10099459;29;20252;-86
2022/11/20 23:39:28;;;;;;;17.17;14.07;;;;;;;0.52;71.23;99355.91;10112813;29;20232;-87
2022/11/20 23:44:50;;;;;;;15.13;13.20;;;;;;;0.76;71.17;99353.16;10106192;29;20237;-86
2022/11/20 23:50:12;;;;;;;14.90;12.77;;;;;;;0.93;70.25;99364.63;10100097;29;20280;-87
2022/11/20 23:55:35;;;;;;;15.33;12.10;;;;;;;0.33;73.09;99373.56;10112772;29;20209;-85
